Nagaleader — VRDD5 — position and weather

sailwx.info

Track history (hours):
 
Tides and Currents Weather Stations Pressure Air Temp Water Temp Dewpoint Dewpoint Depression Visibility Wind Speed Wind Dir Waves Ship Positions

Nagaleader

Last reported at 2016-May-26 08:03 UTC. Time now 2016-May-26 16:34 UTC.
Position N 25°01' E 119°57'.

Length 113 m; draft 6 m.

Type: Cargo ship. MMSI: 477926700.

Date/timePositionNaut miles runAvg speedWind from/ knotsBaromVisibWave heightAir tempDewpointWater temp
2016-May-26 08:03N 25°01' E 119°57'6511.7
2016-May-26 02:30N 26°05' E 119°46'1010.4
2016-May-26 01:30N 26°08' E 119°35'1010.2
2016-May-26 00:33N 26°00' E 119°29'0 0.2
2016-May-25 23:27N 26°00' E 119°29'0 0.0
2016-May-25 22:27N 26°00' E 119°29'0 0.0
2016-May-25 21:33N 26°00' E 119°29'0 0.0
2016-May-25 20:33N 26°00' E 119°29'0 0.0
2016-May-25 19:33N 26°00' E 119°29'0 0.0
2016-May-25 18:27N 26°00' E 119°29'0 0.0
2016-May-25 17:33N 26°00' E 119°29'0 0.0
2016-May-25 16:33N 26°00' E 119°29'0 0.0
2016-May-25 15:33N 26°00' E 119°29'0 0.0
2016-May-25 14:33N 26°00' E 119°29'0 0.0
2016-May-25 13:27N 26°00' E 119°29'0 0.0
2016-May-25 12:33N 26°00' E 119°29'0 0.0
2016-May-25 11:27N 26°00' E 119°29'0 0.0
2016-May-25 10:33N 26°00' E 119°29'0 0.0
2016-May-25 09:27N 26°00' E 119°29'0 0.0
2016-May-25 08:33N 26°00' E 119°29'0 0.1
2016-May-25 07:33N 26°00' E 119°29'4 4.2
2016-May-25 06:32N 26°04' E 119°31'20510.8
2016-May-24 11:33N 22°42' E 120°09'1010.5
2016-May-24 10:33N 22°35' E 120°18'1 1.4
2016-May-24 09:33N 22°34' E 120°19'0 0.0
2016-May-24 08:28N 22°34' E 120°19'0 0.0
2016-May-24 06:16N 22°34' E 120°19'0 0.0
2016-May-24 05:28N 22°34' E 120°19'0 0.0
2016-May-24 04:28N 22°34' E 120°19'0 0.0
2016-May-24 03:28N 22°34' E 120°19'0 0.0
2016-May-24 02:28N 22°34' E 120°19'0 0.0
2016-May-24 01:28N 22°34' E 120°19'2 0.3
2016-May-23 18:33N 22°32' E 120°17'0 0.4
2016-May-23 17:28N 22°32' E 120°16'0 0.0
2016-May-23 16:28N 22°32' E 120°16'0 0.0
2016-May-23 15:28N 22°32' E 120°16'0 0.0
2016-May-23 14:28N 22°32' E 120°16'0 0.0
2016-May-23 13:10N 22°32' E 120°16'0 0.0
2016-May-23 12:33N 22°32' E 120°16'8 8.1
2016-May-23 11:33N 22°38' E 120°10'21110.6
2016-May-22 15:33N 26°06' E 119°32'6 6.1
2016-May-22 14:30N 26°00' E 119°29'0 0.0
2016-May-22 13:32N 26°00' E 119°29'0 0.0
2016-May-22 12:32N 26°00' E 119°29'0 0.0
2016-May-22 11:20N 26°00' E 119°29'0 0.0
2016-May-22 10:32N 26°00' E 119°29'0 0.0
2016-May-22 09:26N 26°00' E 119°29'0 0.0
2016-May-22 08:32N 26°00' E 119°29'0 0.0
2016-May-22 07:32N 26°00' E 119°29'0 0.0
2016-May-22 06:32N 26°00' E 119°29'0 0.0
2016-May-22 05:32N 26°00' E 119°29'0 0.0
2016-May-22 04:26N 26°00' E 119°29'0 0.0
2016-May-22 03:31N 26°00' E 119°29'0 0.0
2016-May-22 01:31N 26°00' E 119°29'0 0.4
2016-May-22 00:33N 26°00' E 119°29'19811.6
2016-May-21 07:33N 22°46' E 120°07'1312.5
2016-May-21 06:33N 22°34' E 120°13'6 5.8
2016-May-21 05:33N 22°34' E 120°19'0 0.1
2016-May-21 04:33N 22°34' E 120°19'0 0.0
2016-May-21 03:30N 22°34' E 120°19'0 0.0
2016-May-21 02:24N 22°34' E 120°19'0 0.0
2016-May-21 01:30N 22°34' E 120°19'0 0.0
2016-May-21 00:29N 22°34' E 120°19'0 0.0
2016-May-20 23:29N 22°34' E 120°19'0 0.0
2016-May-20 22:23N 22°34' E 120°19'0 0.0
2016-May-20 19:23N 22°34' E 120°19'3 3.7
2016-May-20 18:33N 22°32' E 120°16'5 4.6
2016-May-20 17:33N 22°32' E 120°11'1212.3
2016-May-20 16:33N 22°44' E 120°07'5610.6
2016-May-20 11:17N 23°39' E 119°55'7 9.8
2016-May-20 10:33N 23°46' E 119°55'14311.5
2016-May-19 22:04N 26°08' E 119°35'612.3
2016-May-19 21:33N 26°03' E 119°30'3 3.2
2016-May-19 20:32N 26°00' E 119°29'0 0.0
2016-May-19 19:19N 26°00' E 119°29'0 0.0
2016-May-19 18:13N 26°00' E 119°29'0 0.0
2016-May-19 17:25N 26°00' E 119°29'0 0.0
2016-May-19 16:19N 26°00' E 119°29'0 0.0
2016-May-19 15:31N 26°00' E 119°29'0 0.0
2016-May-19 14:07N 26°00' E 119°29'0 0.0
2016-May-19 13:19N 26°00' E 119°29'0 0.0
2016-May-19 12:31N 26°00' E 119°29'0 0.0
2016-May-19 11:31N 26°00' E 119°29'0 0.0
2016-May-19 10:19N 26°00' E 119°29'0 0.0
2016-May-19 09:19N 26°00' E 119°29'0 0.0
2016-May-19 08:25N 26°00' E 119°29'1 1.1
2016-May-19 07:31N 26°01' E 119°29'9 0.3
2016-May-18 03:10N 26°08' E 119°35'812.2
2016-May-18 02:33N 26°02' E 119°30'2 2.4
2016-May-18 01:33N 26°00' E 119°29'0 0.0
2016-May-18 00:27N 26°00' E 119°29'0 0.0
2016-May-17 23:27N 26°00' E 119°29'0 0.0
2016-May-17 16:33N 26°00' E 119°29'0 0.0
2016-May-17 15:27N 26°00' E 119°29'0 0.0
2016-May-17 14:33N 26°00' E 119°29'7 7.1
2016-May-17 13:30N 26°07' E 119°33'205 9.3
2016-May-16 15:33N 22°44' E 120°07'1111.3
2016-May-16 14:33N 22°34' E 120°13'6 5.7
2016-May-16 13:33N 22°34' E 120°19'0 0.0
2016-May-16 11:24N 22°34' E 120°19'0 0.0
2016-May-16 10:30N 22°34' E 120°19'0 0.0
2016-May-16 09:24N 22°34' E 120°19'0 0.0
2016-May-16 08:30N 22°34' E 120°19'  
Track history (hours):
 
Tides and Currents Weather Stations Pressure Air Temp Water Temp Dewpoint Dewpoint Depression Visibility Wind Speed Wind Dir Waves Ship Positions

Nagaleader

Last reported at 2016-May-26 08:03 UTC. Time now 2016-May-26 16:34 UTC.
Position N 25°01' E 119°57'.

Length 113 m; draft 6 m.

Type: Cargo ship. MMSI: 477926700.

Date/timePositionNaut miles runAvg speedWind from/ knotsBaromVisibWave heightAir tempDewpointWater temp
2016-May-26 08:03N 25°01' E 119°57'6511.7
2016-May-26 02:30N 26°05' E 119°46'1010.4
2016-May-26 01:30N 26°08' E 119°35'1010.2
2016-May-26 00:33N 26°00' E 119°29'0 0.2
2016-May-25 23:27N 26°00' E 119°29'0 0.0
2016-May-25 22:27N 26°00' E 119°29'0 0.0
2016-May-25 21:33N 26°00' E 119°29'0 0.0
2016-May-25 20:33N 26°00' E 119°29'0 0.0
2016-May-25 19:33N 26°00' E 119°29'0 0.0
2016-May-25 18:27N 26°00' E 119°29'0 0.0
2016-May-25 17:33N 26°00' E 119°29'0 0.0
2016-May-25 16:33N 26°00' E 119°29'0 0.0
2016-May-25 15:33N 26°00' E 119°29'0 0.0
2016-May-25 14:33N 26°00' E 119°29'0 0.0
2016-May-25 13:27N 26°00' E 119°29'0 0.0
2016-May-25 12:33N 26°00' E 119°29'0 0.0
2016-May-25 11:27N 26°00' E 119°29'0 0.0
2016-May-25 10:33N 26°00' E 119°29'0 0.0
2016-May-25 09:27N 26°00' E 119°29'0 0.0
2016-May-25 08:33N 26°00' E 119°29'0 0.1
2016-May-25 07:33N 26°00' E 119°29'4 4.2
2016-May-25 06:32N 26°04' E 119°31'20510.8
2016-May-24 11:33N 22°42' E 120°09'1010.5
2016-May-24 10:33N 22°35' E 120°18'1 1.4
2016-May-24 09:33N 22°34' E 120°19'0 0.0
2016-May-24 08:28N 22°34' E 120°19'0 0.0
2016-May-24 06:16N 22°34' E 120°19'0 0.0
2016-May-24 05:28N 22°34' E 120°19'0 0.0
2016-May-24 04:28N 22°34' E 120°19'0 0.0
2016-May-24 03:28N 22°34' E 120°19'0 0.0
2016-May-24 02:28N 22°34' E 120°19'0 0.0
2016-May-24 01:28N 22°34' E 120°19'2 0.3
2016-May-23 18:33N 22°32' E 120°17'0 0.4
2016-May-23 17:28N 22°32' E 120°16'0 0.0
2016-May-23 16:28N 22°32' E 120°16'0 0.0
2016-May-23 15:28N 22°32' E 120°16'0 0.0
2016-May-23 14:28N 22°32' E 120°16'0 0.0
2016-May-23 13:10N 22°32' E 120°16'0 0.0
2016-May-23 12:33N 22°32' E 120°16'8 8.1
2016-May-23 11:33N 22°38' E 120°10'21110.6
2016-May-22 15:33N 26°06' E 119°32'6 6.1
2016-May-22 14:30N 26°00' E 119°29'0 0.0
2016-May-22 13:32N 26°00' E 119°29'0 0.0
2016-May-22 12:32N 26°00' E 119°29'0 0.0
2016-May-22 11:20N 26°00' E 119°29'0 0.0
2016-May-22 10:32N 26°00' E 119°29'0 0.0
2016-May-22 09:26N 26°00' E 119°29'0 0.0
2016-May-22 08:32N 26°00' E 119°29'0 0.0
2016-May-22 07:32N 26°00' E 119°29'0 0.0
2016-May-22 06:32N 26°00' E 119°29'0 0.0
2016-May-22 05:32N 26°00' E 119°29'0 0.0
2016-May-22 04:26N 26°00' E 119°29'0 0.0
2016-May-22 03:31N 26°00' E 119°29'0 0.0
2016-May-22 01:31N 26°00' E 119°29'0 0.4
2016-May-22 00:33N 26°00' E 119°29'19811.6
2016-May-21 07:33N 22°46' E 120°07'1312.5
2016-May-21 06:33N 22°34' E 120°13'6 5.8
2016-May-21 05:33N 22°34' E 120°19'0 0.1
2016-May-21 04:33N 22°34' E 120°19'0 0.0
2016-May-21 03:30N 22°34' E 120°19'0 0.0
2016-May-21 02:24N 22°34' E 120°19'0 0.0
2016-May-21 01:30N 22°34' E 120°19'0 0.0
2016-May-21 00:29N 22°34' E 120°19'0 0.0
2016-May-20 23:29N 22°34' E 120°19'0 0.0
2016-May-20 22:23N 22°34' E 120°19'0 0.0
2016-May-20 19:23N 22°34' E 120°19'3 3.7
2016-May-20 18:33N 22°32' E 120°16'5 4.6
2016-May-20 17:33N 22°32' E 120°11'1212.3
2016-May-20 16:33N 22°44' E 120°07'5610.6
2016-May-20 11:17N 23°39' E 119°55'7 9.8
2016-May-20 10:33N 23°46' E 119°55'14311.5
2016-May-19 22:04N 26°08' E 119°35'612.3
2016-May-19 21:33N 26°03' E 119°30'3 3.2
2016-May-19 20:32N 26°00' E 119°29'0 0.0
2016-May-19 19:19N 26°00' E 119°29'0 0.0
2016-May-19 18:13N 26°00' E 119°29'0 0.0
2016-May-19 17:25N 26°00' E 119°29'0 0.0
2016-May-19 16:19N 26°00' E 119°29'0 0.0
2016-May-19 15:31N 26°00' E 119°29'0 0.0
2016-May-19 14:07N 26°00' E 119°29'0 0.0
2016-May-19 13:19N 26°00' E 119°29'0 0.0
2016-May-19 12:31N 26°00' E 119°29'0 0.0
2016-May-19 11:31N 26°00' E 119°29'0 0.0
2016-May-19 10:19N 26°00' E 119°29'0 0.0
2016-May-19 09:19N 26°00' E 119°29'0 0.0
2016-May-19 08:25N 26°00' E 119°29'1 1.1
2016-May-19 07:31N 26°01' E 119°29'9 0.3
2016-May-18 03:10N 26°08' E 119°35'812.2
2016-May-18 02:33N 26°02' E 119°30'2 2.4
2016-May-18 01:33N 26°00' E 119°29'0 0.0
2016-May-18 00:27N 26°00' E 119°29'0 0.0
2016-May-17 23:27N 26°00' E 119°29'0 0.0
2016-May-17 16:33N 26°00' E 119°29'0 0.0
2016-May-17 15:27N 26°00' E 119°29'0 0.0
2016-May-17 14:33N 26°00' E 119°29'7 7.1
2016-May-17 13:30N 26°07' E 119°33'205 9.3
2016-May-16 15:33N 22°44' E 120°07'1111.3
2016-May-16 14:33N 22°34' E 120°13'6 5.7
2016-May-16 13:33N 22°34' E 120°19'0 0.0
2016-May-16 11:24N 22°34' E 120°19'0 0.0
2016-May-16 10:30N 22°34' E 120°19'0 0.0
2016-May-16 09:24N 22°34' E 120°19'0 0.0
2016-May-16 08:30N 22°34' E 120°19'  

Dump ship's entire track history